sensor_id;sensor_type;location;lat;lon;timestamp;P1;durP1;ratioP1;P2;durP2;ratioP2
13649;SDS011;6898;50.918;4.688;2022-10-13T00:00:43;21.63;;;11.70;;
13649;SDS011;6898;50.918;4.688;2022-10-13T00:03:13;22.60;;;12.38;;
13649;SDS011;6898;50.918;4.688;2022-10-13T00:05:42;20.52;;;12.18;;
13649;SDS011;6898;50.918;4.688;2022-10-13T00:08:10;19.70;;;12.38;;
13649;SDS011;6898;50.918;4.688;2022-10-13T00:10:39;23.65;;;12.15;;
13649;SDS011;6898;50.918;4.688;2022-10-13T00:13:08;19.98;;;11.93;;
13649;SDS011;6898;50.918;4.688;2022-10-13T00:15:36;19.90;;;11.90;;
13649;SDS011;6898;50.918;4.688;2022-10-13T00:18:05;21.90;;;11.95;;
13649;SDS011;6898;50.918;4.688;2022-10-13T00:20:39;18.42;;;11.40;;
13649;SDS011;6898;50.918;4.688;2022-10-13T00:23:07;21.58;;;11.98;;
13649;SDS011;6898;50.918;4.688;2022-10-13T00:25:39;18.38;;;11.05;;
13649;SDS011;6898;50.918;4.688;2022-10-13T00:28:07;21.10;;;11.70;;
13649;SDS011;6898;50.918;4.688;2022-10-13T00:30:36;18.70;;;11.38;;
13649;SDS011;6898;50.918;4.688;2022-10-13T00:33:04;21.52;;;11.48;;
13649;SDS011;6898;50.918;4.688;2022-10-13T00:35:33;17.63;;;11.57;;
13649;SDS011;6898;50.918;4.688;2022-10-13T00:38:03;19.65;;;10.93;;
13649;SDS011;6898;50.918;4.688;2022-10-13T00:40:31;18.70;;;11.40;;
13649;SDS011;6898;50.918;4.688;2022-10-13T00:43:00;17.90;;;11.20;;
13649;SDS011;6898;50.918;4.688;2022-10-13T00:45:28;17.88;;;10.90;;
13649;SDS011;6898;50.918;4.688;2022-10-13T00:47:57;16.98;;;10.85;;
13649;SDS011;6898;50.918;4.688;2022-10-13T00:50:29;21.80;;;10.87;;
13649;SDS011;6898;50.918;4.688;2022-10-13T00:52:59;17.40;;;10.90;;
13649;SDS011;6898;50.918;4.688;2022-10-13T00:55:29;17.75;;;11.07;;
13649;SDS011;6898;50.918;4.688;2022-10-13T00:57:59;16.77;;;10.75;;
13649;SDS011;6898;50.918;4.688;2022-10-13T01:00:30;17.15;;;10.90;;
13649;SDS011;6898;50.918;4.688;2022-10-13T01:02:59;16.25;;;10.65;;
13649;SDS011;6898;50.918;4.688;2022-10-13T01:05:28;17.20;;;10.38;;
13649;SDS011;6898;50.918;4.688;2022-10-13T01:07:56;17.77;;;10.88;;
13649;SDS011;6898;50.918;4.688;2022-10-13T01:10:31;20.30;;;11.40;;
13649;SDS011;6898;50.918;4.688;2022-10-13T01:13:03;17.45;;;10.77;;
13649;SDS011;6898;50.918;4.688;2022-10-13T01:15:36;17.08;;;11.07;;
13649;SDS011;6898;50.918;4.688;2022-10-13T01:18:10;15.00;;;11.00;;
13649;SDS011;6898;50.918;4.688;2022-10-13T01:20:45;17.70;;;10.77;;
13649;SDS011;6898;50.918;4.688;2022-10-13T01:23:25;16.58;;;11.02;;
13649;SDS011;6898;50.918;4.688;2022-10-13T01:26:05;17.83;;;11.20;;
13649;SDS011;6898;50.918;4.688;2022-10-13T01:28:40;17.45;;;10.85;;
13649;SDS011;6898;50.918;4.688;2022-10-13T01:31:17;17.17;;;11.05;;
13649;SDS011;6898;50.918;4.688;2022-10-13T01:33:48;20.58;;;11.32;;
13649;SDS011;6898;50.918;4.688;2022-10-13T01:36:19;21.70;;;11.07;;
13649;SDS011;6898;50.918;4.688;2022-10-13T01:38:52;17.80;;;10.70;;
13649;SDS011;6898;50.918;4.688;2022-10-13T01:41:23;19.00;;;11.43;;
13649;SDS011;6898;50.918;4.688;2022-10-13T01:43:54;17.75;;;11.38;;
13649;SDS011;6898;50.918;4.688;2022-10-13T01:46:26;19.08;;;11.25;;
13649;SDS011;6898;50.918;4.688;2022-10-13T01:48:57;15.25;;;10.75;;
13649;SDS011;6898;50.918;4.688;2022-10-13T01:51:26;17.23;;;11.07;;
13649;SDS011;6898;50.918;4.688;2022-10-13T01:53:56;22.50;;;11.90;;
13649;SDS011;6898;50.918;4.688;2022-10-13T01:56:25;16.95;;;11.23;;
13649;SDS011;6898;50.918;4.688;2022-10-13T01:58:53;15.90;;;10.82;;
13649;SDS011;6898;50.918;4.688;2022-10-13T02:01:31;18.60;;;11.93;;
13649;SDS011;6898;50.918;4.688;2022-10-13T02:04:09;19.35;;;11.13;;
13649;SDS011;6898;50.918;4.688;2022-10-13T02:06:40;20.45;;;11.43;;
13649;SDS011;6898;50.918;4.688;2022-10-13T02:09:12;21.58;;;11.65;;
13649;SDS011;6898;50.918;4.688;2022-10-13T02:11:43;20.47;;;11.90;;
13649;SDS011;6898;50.918;4.688;2022-10-13T02:14:13;19.75;;;11.80;;
13649;SDS011;6898;50.918;4.688;2022-10-13T02:16:44;20.95;;;11.82;;
13649;SDS011;6898;50.918;4.688;2022-10-13T02:19:15;19.02;;;11.48;;
13649;SDS011;6898;50.918;4.688;2022-10-13T02:21:43;18.65;;;12.15;;
13649;SDS011;6898;50.918;4.688;2022-10-13T02:24:13;18.90;;;12.02;;
13649;SDS011;6898;50.918;4.688;2022-10-13T02:26:42;17.80;;;11.07;;
13649;SDS011;6898;50.918;4.688;2022-10-13T02:29:11;20.23;;;12.07;;
13649;SDS011;6898;50.918;4.688;2022-10-13T02:31:40;20.90;;;12.02;;
13649;SDS011;6898;50.918;4.688;2022-10-13T02:34:10;18.70;;;11.38;;
13649;SDS011;6898;50.918;4.688;2022-10-13T02:36:39;19.52;;;12.45;;
13649;SDS011;6898;50.918;4.688;2022-10-13T02:39:08;19.42;;;11.98;;
13649;SDS011;6898;50.918;4.688;2022-10-13T02:41:37;19.73;;;12.27;;
13649;SDS011;6898;50.918;4.688;2022-10-13T02:44:05;18.85;;;11.77;;
13649;SDS011;6898;50.918;4.688;2022-10-13T02:46:34;20.27;;;12.57;;
13649;SDS011;6898;50.918;4.688;2022-10-13T02:49:02;20.48;;;11.82;;
13649;SDS011;6898;50.918;4.688;2022-10-13T02:51:32;20.65;;;12.18;;
13649;SDS011;6898;50.918;4.688;2022-10-13T02:54:04;21.25;;;12.43;;
13649;SDS011;6898;50.918;4.688;2022-10-13T02:56:32;19.75;;;12.38;;
13649;SDS011;6898;50.918;4.688;2022-10-13T02:59:01;20.83;;;11.90;;
13649;SDS011;6898;50.918;4.688;2022-10-13T03:01:29;21.10;;;12.48;;
13649;SDS011;6898;50.918;4.688;2022-10-13T03:03:58;19.90;;;12.23;;
13649;SDS011;6898;50.918;4.688;2022-10-13T03:06:26;20.52;;;12.23;;
13649;SDS011;6898;50.918;4.688;2022-10-13T03:08:56;21.23;;;12.65;;
13649;SDS011;6898;50.918;4.688;2022-10-13T03:11:24;21.77;;;13.10;;
13649;SDS011;6898;50.918;4.688;2022-10-13T03:13:53;22.30;;;13.37;;
13649;SDS011;6898;50.918;4.688;2022-10-13T03:16:21;22.27;;;12.75;;
13649;SDS011;6898;50.918;4.688;2022-10-13T03:18:50;24.02;;;12.73;;
13649;SDS011;6898;50.918;4.688;2022-10-13T03:21:18;20.48;;;12.98;;
13649;SDS011;6898;50.918;4.688;2022-10-13T03:23:47;20.63;;;13.25;;
13649;SDS011;6898;50.918;4.688;2022-10-13T03:26:18;20.50;;;13.10;;
13649;SDS011;6898;50.918;4.688;2022-10-13T03:28:47;22.10;;;12.82;;
13649;SDS011;6898;50.918;4.688;2022-10-13T03:31:16;20.75;;;13.23;;
13649;SDS011;6898;50.918;4.688;2022-10-13T03:33:45;22.55;;;12.68;;
13649;SDS011;6898;50.918;4.688;2022-10-13T03:36:13;22.75;;;12.70;;
13649;SDS011;6898;50.918;4.688;2022-10-13T03:38:42;23.05;;;12.90;;
13649;SDS011;6898;50.918;4.688;2022-10-13T03:41:11;21.47;;;12.07;;
13649;SDS011;6898;50.918;4.688;2022-10-13T03:43:41;21.60;;;12.80;;
13649;SDS011;6898;50.918;4.688;2022-10-13T03:46:10;17.43;;;12.10;;
13649;SDS011;6898;50.918;4.688;2022-10-13T03:48:39;19.08;;;12.35;;
13649;SDS011;6898;50.918;4.688;2022-10-13T03:51:09;20.13;;;12.35;;
13649;SDS011;6898;50.918;4.688;2022-10-13T03:53:38;20.33;;;12.50;;
13649;SDS011;6898;50.918;4.688;2022-10-13T03:56:06;19.35;;;12.23;;
13649;SDS011;6898;50.918;4.688;2022-10-13T03:58:35;21.23;;;13.32;;
13649;SDS011;6898;50.918;4.688;2022-10-13T04:01:04;20.65;;;12.73;;
13649;SDS011;6898;50.918;4.688;2022-10-13T04:03:33;19.95;;;12.32;;
13649;SDS011;6898;50.918;4.688;2022-10-13T04:06:02;21.17;;;12.43;;
13649;SDS011;6898;50.918;4.688;2022-10-13T04:08:31;21.10;;;11.80;;
13649;SDS011;6898;50.918;4.688;2022-10-13T04:11:00;23.42;;;13.00;;
13649;SDS011;6898;50.918;4.688;2022-10-13T04:13:29;24.00;;;13.07;;
13649;SDS011;6898;50.918;4.688;2022-10-13T04:16:00;21.77;;;13.23;;
13649;SDS011;6898;50.918;4.688;2022-10-13T04:18:30;19.58;;;13.18;;
13649;SDS011;6898;50.918;4.688;2022-10-13T04:20:59;21.25;;;13.02;;
13649;SDS011;6898;50.918;4.688;2022-10-13T04:23:27;20.52;;;13.00;;
13649;SDS011;6898;50.918;4.688;2022-10-13T04:25:56;21.42;;;13.30;;
13649;SDS011;6898;50.918;4.688;2022-10-13T04:28:24;21.33;;;13.05;;
13649;SDS011;6898;50.918;4.688;2022-10-13T04:30:53;20.50;;;12.90;;
13649;SDS011;6898;50.918;4.688;2022-10-13T04:33:21;20.10;;;13.07;;
13649;SDS011;6898;50.918;4.688;2022-10-13T04:35:51;21.05;;;12.43;;
13649;SDS011;6898;50.918;4.688;2022-10-13T04:38:19;22.33;;;13.10;;
13649;SDS011;6898;50.918;4.688;2022-10-13T04:40:48;20.45;;;12.65;;
13649;SDS011;6898;50.918;4.688;2022-10-13T04:43:16;19.85;;;13.02;;
13649;SDS011;6898;50.918;4.688;2022-10-13T04:45:45;21.37;;;13.33;;
13649;SDS011;6898;50.918;4.688;2022-10-13T04:48:13;19.80;;;13.07;;
13649;SDS011;6898;50.918;4.688;2022-10-13T04:50:41;18.80;;;12.70;;
13649;SDS011;6898;50.918;4.688;2022-10-13T04:53:11;18.48;;;12.95;;
13649;SDS011;6898;50.918;4.688;2022-10-13T04:55:43;19.65;;;12.85;;
13649;SDS011;6898;50.918;4.688;2022-10-13T04:58:11;21.58;;;13.63;;
13649;SDS011;6898;50.918;4.688;2022-10-13T05:00:44;18.67;;;12.73;;
13649;SDS011;6898;50.918;4.688;2022-10-13T05:03:12;19.38;;;13.05;;
13649;SDS011;6898;50.918;4.688;2022-10-13T05:05:41;21.38;;;12.80;;
13649;SDS011;6898;50.918;4.688;2022-10-13T05:08:18;22.02;;;13.25;;
13649;SDS011;6898;50.918;4.688;2022-10-13T05:10:51;21.38;;;13.35;;
13649;SDS011;6898;50.918;4.688;2022-10-13T05:13:20;18.10;;;12.70;;
13649;SDS011;6898;50.918;4.688;2022-10-13T05:15:49;18.77;;;12.45;;
13649;SDS011;6898;50.918;4.688;2022-10-13T05:18:17;20.40;;;12.82;;
13649;SDS011;6898;50.918;4.688;2022-10-13T05:20:46;20.95;;;12.98;;
13649;SDS011;6898;50.918;4.688;2022-10-13T05:23:17;21.55;;;12.88;;
13649;SDS011;6898;50.918;4.688;2022-10-13T05:25:46;22.27;;;13.57;;
13649;SDS011;6898;50.918;4.688;2022-10-13T05:28:14;20.95;;;13.10;;
13649;SDS011;6898;50.918;4.688;2022-10-13T05:30:42;18.10;;;12.63;;
13649;SDS011;6898;50.918;4.688;2022-10-13T05:33:11;24.17;;;13.57;;
13649;SDS011;6898;50.918;4.688;2022-10-13T05:35:39;23.17;;;13.55;;
13649;SDS011;6898;50.918;4.688;2022-10-13T05:38:08;19.27;;;13.17;;
13649;SDS011;6898;50.918;4.688;2022-10-13T05:40:38;22.08;;;13.27;;
13649;SDS011;6898;50.918;4.688;2022-10-13T05:43:06;21.15;;;13.05;;
13649;SDS011;6898;50.918;4.688;2022-10-13T05:45:34;21.40;;;13.33;;
13649;SDS011;6898;50.918;4.688;2022-10-13T05:48:03;21.73;;;13.57;;
13649;SDS011;6898;50.918;4.688;2022-10-13T05:50:31;20.20;;;13.55;;
13649;SDS011;6898;50.918;4.688;2022-10-13T05:53:01;20.42;;;13.20;;
13649;SDS011;6898;50.918;4.688;2022-10-13T05:55:29;20.20;;;13.30;;
13649;SDS011;6898;50.918;4.688;2022-10-13T05:58:02;20.83;;;12.57;;
13649;SDS011;6898;50.918;4.688;2022-10-13T06:00:32;21.35;;;13.77;;
13649;SDS011;6898;50.918;4.688;2022-10-13T06:03:01;20.57;;;13.17;;
13649;SDS011;6898;50.918;4.688;2022-10-13T06:05:31;22.35;;;13.40;;
13649;SDS011;6898;50.918;4.688;2022-10-13T06:07:59;18.83;;;13.10;;
13649;SDS011;6898;50.918;4.688;2022-10-13T06:10:28;20.58;;;13.10;;
13649;SDS011;6898;50.918;4.688;2022-10-13T06:12:56;19.05;;;12.85;;
13649;SDS011;6898;50.918;4.688;2022-10-13T06:15:26;21.60;;;13.27;;
13649;SDS011;6898;50.918;4.688;2022-10-13T06:17:54;22.80;;;13.48;;
13649;SDS011;6898;50.918;4.688;2022-10-13T06:20:23;21.13;;;13.07;;
13649;SDS011;6898;50.918;4.688;2022-10-13T06:22:54;21.55;;;12.73;;
13649;SDS011;6898;50.918;4.688;2022-10-13T06:25:24;20.25;;;12.70;;
13649;SDS011;6898;50.918;4.688;2022-10-13T06:27:55;21.35;;;13.18;;
13649;SDS011;6898;50.918;4.688;2022-10-13T06:30:26;20.38;;;12.77;;
13649;SDS011;6898;50.918;4.688;2022-10-13T06:32:55;19.67;;;12.98;;
13649;SDS011;6898;50.918;4.688;2022-10-13T06:35:24;21.70;;;13.05;;
13649;SDS011;6898;50.918;4.688;2022-10-13T06:37:52;19.10;;;12.90;;
13649;SDS011;6898;50.918;4.688;2022-10-13T06:40:23;20.35;;;13.10;;
13649;SDS011;6898;50.918;4.688;2022-10-13T06:42:52;22.35;;;12.90;;
13649;SDS011;6898;50.918;4.688;2022-10-13T06:45:20;20.98;;;13.32;;
13649;SDS011;6898;50.918;4.688;2022-10-13T06:47:51;21.15;;;13.35;;
13649;SDS011;6898;50.918;4.688;2022-10-13T06:50:19;22.05;;;13.23;;
13649;SDS011;6898;50.918;4.688;2022-10-13T06:52:47;18.83;;;12.52;;
13649;SDS011;6898;50.918;4.688;2022-10-13T06:55:16;20.67;;;13.02;;
13649;SDS011;6898;50.918;4.688;2022-10-13T06:57:45;19.58;;;13.07;;
13649;SDS011;6898;50.918;4.688;2022-10-13T07:00:13;21.92;;;12.50;;
13649;SDS011;6898;50.918;4.688;2022-10-13T07:02:42;20.33;;;12.70;;
13649;SDS011;6898;50.918;4.688;2022-10-13T07:05:12;19.80;;;13.03;;
13649;SDS011;6898;50.918;4.688;2022-10-13T07:07:40;21.23;;;12.90;;
13649;SDS011;6898;50.918;4.688;2022-10-13T07:10:09;18.45;;;13.00;;
13649;SDS011;6898;50.918;4.688;2022-10-13T07:12:37;20.92;;;12.85;;
13649;SDS011;6898;50.918;4.688;2022-10-13T07:15:06;21.70;;;12.88;;
13649;SDS011;6898;50.918;4.688;2022-10-13T07:17:35;19.50;;;12.18;;
13649;SDS011;6898;50.918;4.688;2022-10-13T07:20:05;18.88;;;12.40;;
13649;SDS011;6898;50.918;4.688;2022-10-13T07:22:35;20.70;;;12.40;;
13649;SDS011;6898;50.918;4.688;2022-10-13T07:25:03;20.02;;;12.75;;
13649;SDS011;6898;50.918;4.688;2022-10-13T07:27:32;17.90;;;12.48;;
13649;SDS011;6898;50.918;4.688;2022-10-13T07:30:01;18.90;;;12.63;;
13649;SDS011;6898;50.918;4.688;2022-10-13T07:32:30;20.85;;;12.63;;
13649;SDS011;6898;50.918;4.688;2022-10-13T07:34:58;20.90;;;12.35;;
13649;SDS011;6898;50.918;4.688;2022-10-13T07:37:27;20.42;;;12.82;;
13649;SDS011;6898;50.918;4.688;2022-10-13T07:39:57;21.13;;;12.57;;
13649;SDS011;6898;50.918;4.688;2022-10-13T07:42:26;20.75;;;12.25;;
13649;SDS011;6898;50.918;4.688;2022-10-13T07:44:54;19.00;;;12.23;;
13649;SDS011;6898;50.918;4.688;2022-10-13T07:47:23;19.95;;;12.02;;
13649;SDS011;6898;50.918;4.688;2022-10-13T07:49:51;22.08;;;13.10;;
13649;SDS011;6898;50.918;4.688;2022-10-13T07:52:21;18.55;;;12.50;;
13649;SDS011;6898;50.918;4.688;2022-10-13T07:54:49;21.45;;;12.25;;
13649;SDS011;6898;50.918;4.688;2022-10-13T07:57:20;20.48;;;12.27;;
13649;SDS011;6898;50.918;4.688;2022-10-13T07:59:48;19.00;;;11.75;;
13649;SDS011;6898;50.918;4.688;2022-10-13T08:02:17;19.35;;;12.30;;
13649;SDS011;6898;50.918;4.688;2022-10-13T08:04:45;19.50;;;11.68;;
13649;SDS011;6898;50.918;4.688;2022-10-13T08:07:14;18.75;;;11.57;;
13649;SDS011;6898;50.918;4.688;2022-10-13T08:09:43;18.70;;;11.50;;
13649;SDS011;6898;50.918;4.688;2022-10-13T08:12:11;19.52;;;11.98;;
13649;SDS011;6898;50.918;4.688;2022-10-13T08:14:41;16.63;;;11.20;;
13649;SDS011;6898;50.918;4.688;2022-10-13T08:17:10;19.15;;;12.20;;
13649;SDS011;6898;50.918;4.688;2022-10-13T08:19:38;20.90;;;11.60;;
13649;SDS011;6898;50.918;4.688;2022-10-13T08:22:07;16.27;;;11.30;;
13649;SDS011;6898;50.918;4.688;2022-10-13T08:24:36;17.15;;;11.27;;
13649;SDS011;6898;50.918;4.688;2022-10-13T08:27:04;17.73;;;11.07;;
13649;SDS011;6898;50.918;4.688;2022-10-13T08:29:33;17.33;;;10.98;;
13649;SDS011;6898;50.918;4.688;2022-10-13T08:32:03;17.50;;;11.35;;
13649;SDS011;6898;50.918;4.688;2022-10-13T08:34:32;16.52;;;10.98;;
13649;SDS011;6898;50.918;4.688;2022-10-13T08:37:01;19.35;;;11.27;;
13649;SDS011;6898;50.918;4.688;2022-10-13T08:39:30;19.20;;;10.77;;
13649;SDS011;6898;50.918;4.688;2022-10-13T08:41:59;16.92;;;10.55;;
13649;SDS011;6898;50.918;4.688;2022-10-13T08:44:29;19.55;;;11.07;;
13649;SDS011;6898;50.918;4.688;2022-10-13T08:47:32;17.42;;;10.63;;
13649;SDS011;6898;50.918;4.688;2022-10-13T08:50:03;18.70;;;10.32;;
13649;SDS011;6898;50.918;4.688;2022-10-13T08:52:41;17.67;;;10.75;;
13649;SDS011;6898;50.918;4.688;2022-10-13T08:55:11;16.00;;;10.38;;
13649;SDS011;6898;50.918;4.688;2022-10-13T08:57:43;15.43;;;10.43;;
13649;SDS011;6898;50.918;4.688;2022-10-13T09:00:12;19.20;;;10.48;;
13649;SDS011;6898;50.918;4.688;2022-10-13T09:02:42;16.40;;;9.95;;
13649;SDS011;6898;50.918;4.688;2022-10-13T09:05:12;15.05;;;10.13;;
13649;SDS011;6898;50.918;4.688;2022-10-13T09:07:41;14.52;;;9.93;;
13649;SDS011;6898;50.918;4.688;2022-10-13T09:10:12;16.27;;;10.10;;
13649;SDS011;6898;50.918;4.688;2022-10-13T09:12:41;16.10;;;10.05;;
13649;SDS011;6898;50.918;4.688;2022-10-13T09:15:10;13.77;;;10.10;;
13649;SDS011;6898;50.918;4.688;2022-10-13T09:17:40;15.77;;;10.27;;
13649;SDS011;6898;50.918;4.688;2022-10-13T09:20:14;13.43;;;9.80;;
13649;SDS011;6898;50.918;4.688;2022-10-13T09:22:59;15.82;;;10.13;;
13649;SDS011;6898;50.918;4.688;2022-10-13T09:25:28;14.98;;;9.68;;
13649;SDS011;6898;50.918;4.688;2022-10-13T09:27:57;15.43;;;9.70;;
13649;SDS011;6898;50.918;4.688;2022-10-13T09:30:28;17.67;;;9.90;;
13649;SDS011;6898;50.918;4.688;2022-10-13T09:33:14;17.40;;;9.52;;
13649;SDS011;6898;50.918;4.688;2022-10-13T09:35:45;15.68;;;9.30;;
13649;SDS011;6898;50.918;4.688;2022-10-13T09:38:14;14.50;;;9.57;;
13649;SDS011;6898;50.918;4.688;2022-10-13T09:40:43;16.02;;;9.35;;
13649;SDS011;6898;50.918;4.688;2022-10-13T09:43:26;15.55;;;9.63;;
13649;SDS011;6898;50.918;4.688;2022-10-13T09:45:55;14.05;;;9.73;;
13649;SDS011;6898;50.918;4.688;2022-10-13T09:48:25;18.08;;;9.75;;
13649;SDS011;6898;50.918;4.688;2022-10-13T09:50:55;14.98;;;9.60;;
13649;SDS011;6898;50.918;4.688;2022-10-13T09:53:27;16.73;;;9.85;;
13649;SDS011;6898;50.918;4.688;2022-10-13T09:58:45;13.60;;;9.60;;
13649;SDS011;6898;50.918;4.688;2022-10-13T10:01:21;16.35;;;10.15;;
13649;SDS011;6898;50.918;4.688;2022-10-13T10:03:51;14.98;;;9.75;;
13649;SDS011;6898;50.918;4.688;2022-10-13T10:06:20;12.85;;;9.77;;
13649;SDS011;6898;50.918;4.688;2022-10-13T10:08:52;16.07;;;10.03;;
13649;SDS011;6898;50.918;4.688;2022-10-13T10:11:28;13.68;;;9.50;;
13649;SDS011;6898;50.918;4.688;2022-10-13T10:13:58;14.80;;;9.20;;
13649;SDS011;6898;50.918;4.688;2022-10-13T10:16:28;14.82;;;9.55;;
13649;SDS011;6898;50.918;4.688;2022-10-13T10:18:59;15.23;;;9.23;;
13649;SDS011;6898;50.918;4.688;2022-10-13T10:21:35;12.25;;;9.25;;
13649;SDS011;6898;50.918;4.688;2022-10-13T10:24:13;14.65;;;9.00;;
13649;SDS011;6898;50.918;4.688;2022-10-13T10:26:48;16.40;;;9.82;;
13649;SDS011;6898;50.918;4.688;2022-10-13T10:29:20;13.38;;;9.18;;
13649;SDS011;6898;50.918;4.688;2022-10-13T10:32:01;11.90;;;9.30;;
13649;SDS011;6898;50.918;4.688;2022-10-13T10:34:34;15.43;;;9.23;;
13649;SDS011;6898;50.918;4.688;2022-10-13T10:37:10;16.20;;;9.45;;
13649;SDS011;6898;50.918;4.688;2022-10-13T10:39:42;17.00;;;9.23;;
13649;SDS011;6898;50.918;4.688;2022-10-13T10:42:18;12.20;;;9.05;;
13649;SDS011;6898;50.918;4.688;2022-10-13T10:44:47;14.38;;;9.32;;
13649;SDS011;6898;50.918;4.688;2022-10-13T10:47:19;15.77;;;9.75;;
13649;SDS011;6898;50.918;4.688;2022-10-13T10:49:49;13.48;;;9.70;;
13649;SDS011;6898;50.918;4.688;2022-10-13T10:52:20;14.68;;;9.88;;
13649;SDS011;6898;50.918;4.688;2022-10-13T10:54:52;15.00;;;10.25;;
13649;SDS011;6898;50.918;4.688;2022-10-13T10:57:22;14.02;;;10.50;;
13649;SDS011;6898;50.918;4.688;2022-10-13T10:59:55;17.35;;;10.90;;
13649;SDS011;6898;50.918;4.688;2022-10-13T11:02:34;17.67;;;11.77;;
13649;SDS011;6898;50.918;4.688;2022-10-13T11:05:04;17.98;;;12.35;;
13649;SDS011;6898;50.918;4.688;2022-10-13T11:10:21;17.80;;;13.53;;
13649;SDS011;6898;50.918;4.688;2022-10-13T11:15:47;18.70;;;14.07;;
13649;SDS011;6898;50.918;4.688;2022-10-13T11:21:00;18.08;;;14.30;;
13649;SDS011;6898;50.918;4.688;2022-10-13T11:23:30;19.40;;;15.10;;
13649;SDS011;6898;50.918;4.688;2022-10-13T11:28:47;22.00;;;15.45;;
13649;SDS011;6898;50.918;4.688;2022-10-13T11:31:23;22.42;;;15.60;;
13649;SDS011;6898;50.918;4.688;2022-10-13T11:33:53;19.38;;;15.25;;
13649;SDS011;6898;50.918;4.688;2022-10-13T11:36:36;21.00;;;15.25;;
13649;SDS011;6898;50.918;4.688;2022-10-13T11:39:14;23.90;;;15.25;;
13649;SDS011;6898;50.918;4.688;2022-10-13T11:41:50;22.48;;;15.40;;
13649;SDS011;6898;50.918;4.688;2022-10-13T11:44:24;19.58;;;14.93;;
13649;SDS011;6898;50.918;4.688;2022-10-13T11:46:58;26.70;;;16.27;;
13649;SDS011;6898;50.918;4.688;2022-10-13T11:52:26;26.60;;;18.40;;
13649;SDS011;6898;50.918;4.688;2022-10-13T11:55:00;23.10;;;17.00;;
13649;SDS011;6898;50.918;4.688;2022-10-13T11:57:29;23.30;;;18.17;;
13649;SDS011;6898;50.918;4.688;2022-10-13T12:00:00;24.60;;;16.67;;
13649;SDS011;6898;50.918;4.688;2022-10-13T12:02:28;23.23;;;16.17;;
13649;SDS011;6898;50.918;4.688;2022-10-13T12:05:01;21.48;;;16.40;;
13649;SDS011;6898;50.918;4.688;2022-10-13T12:07:31;22.45;;;16.02;;
13649;SDS011;6898;50.918;4.688;2022-10-13T12:10:00;21.52;;;16.50;;
13649;SDS011;6898;50.918;4.688;2022-10-13T12:12:30;22.08;;;16.00;;
13649;SDS011;6898;50.918;4.688;2022-10-13T12:15:00;22.27;;;16.27;;
13649;SDS011;6898;50.918;4.688;2022-10-13T12:17:31;22.58;;;15.80;;
13649;SDS011;6898;50.918;4.688;2022-10-13T12:20:02;19.60;;;14.88;;
13649;SDS011;6898;50.918;4.688;2022-10-13T12:22:30;19.25;;;14.80;;
13649;SDS011;6898;50.918;4.688;2022-10-13T12:25:02;23.80;;;15.07;;
13649;SDS011;6898;50.918;4.688;2022-10-13T12:30:19;19.17;;;14.88;;
13649;SDS011;6898;50.918;4.688;2022-10-13T12:32:48;21.17;;;15.20;;
13649;SDS011;6898;50.918;4.688;2022-10-13T12:35:17;23.55;;;15.43;;
13649;SDS011;6898;50.918;4.688;2022-10-13T12:37:45;21.63;;;15.73;;
13649;SDS011;6898;50.918;4.688;2022-10-13T12:40:14;19.15;;;14.85;;
13649;SDS011;6898;50.918;4.688;2022-10-13T12:42:43;20.98;;;15.05;;
13649;SDS011;6898;50.918;4.688;2022-10-13T12:45:13;24.40;;;16.17;;
13649;SDS011;6898;50.918;4.688;2022-10-13T12:47:49;21.38;;;14.25;;
13649;SDS011;6898;50.918;4.688;2022-10-13T12:50:21;20.02;;;14.50;;
13649;SDS011;6898;50.918;4.688;2022-10-13T12:52:51;20.33;;;14.95;;
13649;SDS011;6898;50.918;4.688;2022-10-13T12:55:20;21.58;;;15.65;;
13649;SDS011;6898;50.918;4.688;2022-10-13T12:57:49;22.42;;;15.63;;
13649;SDS011;6898;50.918;4.688;2022-10-13T13:00:22;19.70;;;14.77;;
13649;SDS011;6898;50.918;4.688;2022-10-13T13:02:53;21.60;;;16.40;;
13649;SDS011;6898;50.918;4.688;2022-10-13T13:05:29;21.33;;;15.50;;
13649;SDS011;6898;50.918;4.688;2022-10-13T13:07:58;20.40;;;14.73;;
13649;SDS011;6898;50.918;4.688;2022-10-13T13:10:26;20.87;;;14.80;;
13649;SDS011;6898;50.918;4.688;2022-10-13T13:12:55;21.88;;;14.93;;
13649;SDS011;6898;50.918;4.688;2022-10-13T13:15:30;20.90;;;14.77;;
13649;SDS011;6898;50.918;4.688;2022-10-13T13:20:47;20.80;;;14.50;;
13649;SDS011;6898;50.918;4.688;2022-10-13T13:23:16;21.33;;;13.98;;
13649;SDS011;6898;50.918;4.688;2022-10-13T13:25:45;21.52;;;16.08;;
13649;SDS011;6898;50.918;4.688;2022-10-13T13:28:14;19.65;;;14.70;;
13649;SDS011;6898;50.918;4.688;2022-10-13T13:30:42;20.17;;;14.20;;
13649;SDS011;6898;50.918;4.688;2022-10-13T13:33:11;20.90;;;14.83;;
13649;SDS011;6898;50.918;4.688;2022-10-13T13:35:40;22.60;;;15.98;;
13649;SDS011;6898;50.918;4.688;2022-10-13T13:38:09;23.50;;;18.27;;
13649;SDS011;6898;50.918;4.688;2022-10-13T13:40:38;20.13;;;14.25;;
13649;SDS011;6898;50.918;4.688;2022-10-13T13:43:06;19.08;;;14.57;;
13649;SDS011;6898;50.918;4.688;2022-10-13T13:45:35;20.27;;;16.05;;
13649;SDS011;6898;50.918;4.688;2022-10-13T13:48:03;20.20;;;15.55;;
13649;SDS011;6898;50.918;4.688;2022-10-13T13:50:33;21.50;;;15.35;;
13649;SDS011;6898;50.918;4.688;2022-10-13T13:53:02;25.05;;;16.58;;
13649;SDS011;6898;50.918;4.688;2022-10-13T13:55:32;22.60;;;17.08;;
13649;SDS011;6898;50.918;4.688;2022-10-13T13:58:01;27.73;;;18.08;;
13649;SDS011;6898;50.918;4.688;2022-10-13T14:00:29;22.50;;;17.40;;
13649;SDS011;6898;50.918;4.688;2022-10-13T14:02:57;25.60;;;18.50;;
13649;SDS011;6898;50.918;4.688;2022-10-13T14:05:26;25.85;;;19.27;;
13649;SDS011;6898;50.918;4.688;2022-10-13T14:07:55;25.17;;;19.80;;
13649;SDS011;6898;50.918;4.688;2022-10-13T14:10:24;28.23;;;20.00;;
13649;SDS011;6898;50.918;4.688;2022-10-13T14:12:54;28.10;;;20.55;;
13649;SDS011;6898;50.918;4.688;2022-10-13T14:15:22;25.88;;;20.98;;
13649;SDS011;6898;50.918;4.688;2022-10-13T14:17:52;28.23;;;21.67;;
13649;SDS011;6898;50.918;4.688;2022-10-13T14:20:21;27.75;;;21.15;;
13649;SDS011;6898;50.918;4.688;2022-10-13T14:22:49;28.45;;;21.70;;
13649;SDS011;6898;50.918;4.688;2022-10-13T14:25:18;27.70;;;22.42;;
13649;SDS011;6898;50.918;4.688;2022-10-13T14:27:46;29.92;;;21.83;;
13649;SDS011;6898;50.918;4.688;2022-10-13T14:30:16;31.67;;;22.80;;
13649;SDS011;6898;50.918;4.688;2022-10-13T14:32:44;28.75;;;22.55;;
13649;SDS011;6898;50.918;4.688;2022-10-13T14:35:13;27.92;;;21.48;;
13649;SDS011;6898;50.918;4.688;2022-10-13T14:37:41;29.67;;;21.88;;
13649;SDS011;6898;50.918;4.688;2022-10-13T14:40:10;26.23;;;22.00;;
13649;SDS011;6898;50.918;4.688;2022-10-13T14:42:38;28.25;;;22.00;;
13649;SDS011;6898;50.918;4.688;2022-10-13T14:48:11;21.92;;;18.88;;
13649;SDS011;6898;50.918;4.688;2022-10-13T14:50:40;19.02;;;16.70;;
13649;SDS011;6898;50.918;4.688;2022-10-13T14:53:08;20.60;;;17.37;;
13649;SDS011;6898;50.918;4.688;2022-10-13T14:55:40;31.65;;;24.80;;
13649;SDS011;6898;50.918;4.688;2022-10-13T14:58:09;20.25;;;16.50;;
13649;SDS011;6898;50.918;4.688;2022-10-13T15:00:38;19.88;;;16.80;;
13649;SDS011;6898;50.918;4.688;2022-10-13T15:03:07;29.05;;;22.05;;
13649;SDS011;6898;50.918;4.688;2022-10-13T15:05:37;20.30;;;16.38;;
13649;SDS011;6898;50.918;4.688;2022-10-13T15:08:06;19.90;;;16.55;;
13649;SDS011;6898;50.918;4.688;2022-10-13T15:10:34;24.95;;;19.33;;
13649;SDS011;6898;50.918;4.688;2022-10-13T15:13:03;21.60;;;17.70;;
13649;SDS011;6898;50.918;4.688;2022-10-13T15:15:32;23.58;;;17.10;;
13649;SDS011;6898;50.918;4.688;2022-10-13T15:18:00;24.05;;;18.05;;